createdAt,value
2018-12-25T00:00:43.201Z,99806.21
2018-12-25T00:03:12.872Z,99802.98
2018-12-25T00:05:42.522Z,99802.50
2018-12-25T00:08:12.002Z,99819.13
2018-12-25T00:10:41.530Z,99825.30
2018-12-25T00:13:11.045Z,99842.05
2018-12-25T00:15:40.608Z,99847.22
2018-12-25T00:18:10.109Z,99835.84
2018-12-25T00:20:39.550Z,99861.13
2018-12-25T00:23:09.023Z,99860.78
2018-12-25T00:25:38.599Z,99861.73
2018-12-25T00:28:08.076Z,99855.70
2018-12-25T00:30:37.466Z,99859.94
2018-12-25T00:33:06.902Z,99859.84
2018-12-25T00:35:36.375Z,99859.73
2018-12-25T00:38:05.925Z,99873.27
2018-12-25T00:40:35.404Z,99873.97
2018-12-25T00:43:04.930Z,99863.80
2018-12-25T00:45:34.502Z,99865.41
2018-12-25T00:48:03.878Z,99868.34
2018-12-25T00:50:33.357Z,99878.13
2018-12-25T00:53:02.984Z,99888.66
2018-12-25T00:55:32.626Z,99894.67
2018-12-25T00:58:02.096Z,99907.87
2018-12-25T01:00:31.564Z,99895.39
2018-12-25T01:03:01.102Z,99905.83
2018-12-25T01:05:30.645Z,99920.99
2018-12-25T01:08:00.082Z,99918.72
2018-12-25T01:10:29.662Z,99921.16
2018-12-25T01:12:59.113Z,99915.55
2018-12-25T01:15:28.523Z,99917.09
2018-12-25T01:17:57.975Z,99922.45
2018-12-25T01:20:27.679Z,99926.25
2018-12-25T01:22:57.253Z,99927.75
2018-12-25T01:25:26.815Z,99927.22
2018-12-25T01:27:56.363Z,99932.55
2018-12-25T01:30:25.908Z,99925.41
2018-12-25T01:32:55.475Z,99928.39
2018-12-25T01:35:24.919Z,99940.98
2018-12-25T01:37:54.487Z,99947.67
2018-12-25T01:40:24.019Z,99950.63
2018-12-25T01:42:53.425Z,99954.00
2018-12-25T01:45:22.820Z,99941.17
2018-12-25T01:47:52.401Z,99949.21
2018-12-25T01:50:22.003Z,99968.06
2018-12-25T01:52:51.414Z,99962.73
2018-12-25T01:55:20.902Z,99974.60
2018-12-25T01:57:50.364Z,99978.59
2018-12-25T02:00:19.836Z,99971.00
2018-12-25T02:02:49.433Z,99974.14
2018-12-25T02:05:18.869Z,99963.79
2018-12-25T02:07:48.298Z,99974.78
2018-12-25T02:10:17.851Z,99968.01
2018-12-25T02:12:47.365Z,99955.45
2018-12-25T02:15:16.809Z,99969.72
2018-12-25T02:17:46.292Z,99967.91
2018-12-25T02:20:15.969Z,99978.67
2018-12-25T02:22:45.408Z,99982.70
2018-12-25T02:25:14.845Z,99983.91
2018-12-25T02:27:44.423Z,99990.38
2018-12-25T02:30:13.839Z,99995.70
2018-12-25T02:32:43.264Z,100002.87
2018-12-25T02:35:12.795Z,99996.14
2018-12-25T02:37:42.381Z,99995.27
2018-12-25T02:40:11.882Z,100003.94
2018-12-25T02:42:41.457Z,100009.97
2018-12-25T02:45:11.140Z,100018.06
2018-12-25T02:47:40.577Z,100016.73
2018-12-25T02:50:10.035Z,100037.05
2018-12-25T02:52:39.677Z,100033.13
2018-12-25T02:55:09.158Z,100037.30
2018-12-25T02:57:38.685Z,100033.80
2018-12-25T03:00:08.612Z,100026.40
2018-12-25T03:02:38.174Z,100042.16
2018-12-25T03:05:08.004Z,100043.17
2018-12-25T03:07:37.736Z,100042.45
2018-12-25T03:10:08.330Z,100044.65
2018-12-25T03:12:37.877Z,100060.61
2018-12-25T03:15:07.675Z,100058.56
2018-12-25T03:17:37.245Z,100051.48
2018-12-25T03:20:06.881Z,100059.95
2018-12-25T03:22:36.402Z,100052.86
2018-12-25T03:25:05.974Z,100092.17
2018-12-25T03:27:35.394Z,100085.77
2018-12-25T03:30:05.063Z,100075.41
2018-12-25T03:32:34.605Z,100086.73
2018-12-25T03:35:04.064Z,100100.04
2018-12-25T03:37:33.504Z,100089.20
2018-12-25T03:40:03.064Z,100080.86
2018-12-25T03:42:32.654Z,100099.11
2018-12-25T03:45:02.340Z,100098.52
2018-12-25T03:47:31.856Z,100097.80
2018-12-25T03:50:10.563Z,100099.77
2018-12-25T03:52:32.564Z,100111.37
2018-12-25T03:55:02.123Z,100104.48
2018-12-25T03:57:31.598Z,100110.41
2018-12-25T04:00:01.209Z,100107.98
2018-12-25T04:02:30.764Z,100111.26
2018-12-25T04:05:00.312Z,100124.79
2018-12-25T04:07:29.675Z,100118.87
2018-12-25T04:09:59.122Z,100121.33
2018-12-25T04:12:28.670Z,100117.63
2018-12-25T04:14:58.078Z,100123.55
2018-12-25T04:17:27.495Z,100134.17
2018-12-25T04:19:56.973Z,100152.66
2018-12-25T04:22:26.432Z,100135.51
2018-12-25T04:24:56.055Z,100155.56
2018-12-25T04:27:25.516Z,100150.16
2018-12-25T04:29:54.952Z,100152.58
2018-12-25T04:32:24.403Z,100152.82
2018-12-25T04:34:53.862Z,100158.62
2018-12-25T04:37:23.400Z,100166.34
2018-12-25T04:39:52.872Z,100167.70
2018-12-25T04:42:22.599Z,100171.94
2018-12-25T04:44:52.088Z,100185.22
2018-12-25T04:47:21.644Z,100178.22
2018-12-25T04:49:51.204Z,100184.98
2018-12-25T04:52:20.740Z,100190.78
2018-12-25T04:54:50.143Z,100187.03
2018-12-25T04:57:19.628Z,100191.98
2018-12-25T04:59:49.106Z,100190.90
2018-12-25T05:02:18.532Z,100190.29
2018-12-25T05:04:47.943Z,100190.06
2018-12-25T05:07:17.672Z,100196.83
2018-12-25T05:09:47.243Z,100202.16
2018-12-25T05:12:16.878Z,100221.13
2018-12-25T05:14:46.355Z,100217.85
2018-12-25T05:17:15.798Z,100226.56
2018-12-25T05:19:45.426Z,100220.53
2018-12-25T05:22:14.949Z,100219.44
2018-12-25T05:24:44.373Z,100233.56
2018-12-25T05:27:13.971Z,100220.76
2018-12-25T05:29:43.562Z,100225.97
2018-12-25T05:32:12.969Z,100241.28
2018-12-25T05:34:42.408Z,100232.84
2018-12-25T05:37:11.967Z,100239.62
2018-12-25T05:39:41.535Z,100234.91
2018-12-25T05:42:11.009Z,100234.30
2018-12-25T05:44:40.572Z,100233.55
2018-12-25T05:47:10.235Z,100236.21
2018-12-25T05:49:39.769Z,100244.66
2018-12-25T05:52:09.281Z,100246.61
2018-12-25T05:54:38.879Z,100256.61
2018-12-25T05:57:08.473Z,100265.08
2018-12-25T05:59:38.098Z,100276.44
2018-12-25T06:02:07.567Z,100268.47
2018-12-25T06:04:36.980Z,100264.72
2018-12-25T06:07:06.478Z,100281.50
2018-12-25T06:09:36.016Z,100275.34
2018-12-25T06:12:05.773Z,100282.34
2018-12-25T06:14:35.230Z,100281.24
2018-12-25T06:17:04.792Z,100279.19
2018-12-25T06:19:34.340Z,100295.26
2018-12-25T06:22:03.865Z,100299.47
2018-12-25T06:24:33.395Z,100307.80
2018-12-25T06:27:02.826Z,100296.36
2018-12-25T06:29:32.210Z,100301.90
2018-12-25T06:32:01.674Z,100314.22
2018-12-25T06:34:31.237Z,100317.23
2018-12-25T06:37:00.752Z,100306.82
2018-12-25T06:39:30.385Z,100307.78
2018-12-25T06:41:59.788Z,100311.14
2018-12-25T06:44:29.371Z,100323.86
2018-12-25T06:46:58.862Z,100312.17
2018-12-25T06:49:28.248Z,100318.17
2018-12-25T06:51:57.612Z,100316.69
2018-12-25T06:54:27.198Z,100318.48
2018-12-25T06:56:56.674Z,100306.30
2018-12-25T06:59:26.213Z,100300.55
2018-12-25T07:01:55.690Z,100306.72
2018-12-25T07:04:27.441Z,100309.05
2018-12-25T07:06:56.845Z,100316.53
2018-12-25T07:09:26.291Z,100318.96
2018-12-25T07:11:55.730Z,100332.97
2018-12-25T07:14:25.272Z,100333.82
2018-12-25T07:16:54.736Z,100328.40
2018-12-25T07:19:24.396Z,100330.47
2018-12-25T07:21:53.818Z,100327.33
2018-12-25T07:24:23.401Z,100340.02
2018-12-25T07:26:52.892Z,100345.69
2018-12-25T07:29:22.310Z,100348.23
2018-12-25T07:31:51.752Z,100356.82
2018-12-25T07:34:21.357Z,100355.05
2018-12-25T07:36:50.887Z,100355.88
2018-12-25T07:39:20.308Z,100368.58
2018-12-25T07:41:49.750Z,100367.72
2018-12-25T07:44:19.334Z,100375.36
2018-12-25T07:46:48.944Z,100373.66
2018-12-25T07:49:18.555Z,100380.91
2018-12-25T07:51:48.023Z,100373.80
2018-12-25T07:54:18.459Z,100374.16
2018-12-25T07:56:47.956Z,100372.94
2018-12-25T07:59:17.508Z,100379.13
2018-12-25T08:01:46.990Z,100390.47
2018-12-25T08:04:16.602Z,100381.16
2018-12-25T08:06:46.041Z,100387.55
2018-12-25T08:09:15.533Z,100400.02
2018-12-25T08:11:45.054Z,100394.56
2018-12-25T08:14:14.546Z,100396.23
2018-12-25T08:16:44.002Z,100402.41
2018-12-25T08:19:13.664Z,100398.28
2018-12-25T08:21:43.132Z,100406.34
2018-12-25T08:24:12.731Z,100410.09
2018-12-25T08:26:42.153Z,100410.34
2018-12-25T08:29:11.653Z,100417.91
2018-12-25T08:31:41.159Z,100411.02
2018-12-25T08:34:10.689Z,100402.63
2018-12-25T08:36:40.145Z,100406.87
2018-12-25T08:39:09.571Z,100401.30
2018-12-25T08:41:39.177Z,100420.36
2018-12-25T08:44:08.652Z,100419.84
2018-12-25T08:46:38.083Z,100419.91
2018-12-25T08:49:07.752Z,100405.50
2018-12-25T08:51:37.839Z,100410.34
2018-12-25T08:54:07.618Z,100415.06
2018-12-25T08:56:36.989Z,100409.98
2018-12-25T08:59:06.566Z,100421.39
2018-12-25T09:01:36.078Z,100425.05
2018-12-25T09:04:05.538Z,100420.06
2018-12-25T09:06:35.082Z,100422.42
2018-12-25T09:09:05.887Z,100424.95
2018-12-25T09:11:35.393Z,100417.11
2018-12-25T09:14:04.892Z,100417.72
2018-12-25T09:16:34.427Z,100408.78
2018-12-25T09:19:04.109Z,100403.32
2018-12-25T09:21:33.511Z,100406.32
2018-12-25T09:24:03.016Z,100410.50
2018-12-25T09:26:32.584Z,100406.75
2018-12-25T09:29:02.093Z,100412.36
2018-12-25T09:31:31.728Z,100410.33
2018-12-25T09:34:01.239Z,100408.17
2018-12-25T09:36:30.706Z,100411.02
2018-12-25T09:39:00.240Z,100410.40
2018-12-25T09:41:29.718Z,100396.95
2018-12-25T09:43:59.249Z,100393.14
2018-12-25T09:46:28.747Z,100401.70
2018-12-25T09:48:58.378Z,100397.60
2018-12-25T09:51:27.836Z,100382.04
2018-12-25T09:53:57.383Z,100387.06
2018-12-25T09:56:26.923Z,100380.15
2018-12-25T09:58:56.340Z,100369.66
2018-12-25T10:01:25.727Z,100371.61
2018-12-25T10:03:55.305Z,100363.16
2018-12-25T10:06:24.873Z,100363.31
2018-12-25T10:08:54.419Z,100363.50
2018-12-25T10:11:23.900Z,100360.19
2018-12-25T10:13:53.415Z,100354.53
2018-12-25T10:16:22.944Z,100356.05
2018-12-25T10:18:52.435Z,100356.34
2018-12-25T10:21:21.853Z,100347.57
2018-12-25T10:23:51.223Z,100338.33
2018-12-25T10:26:20.795Z,100348.19
2018-12-25T10:28:50.366Z,100342.02
2018-12-25T10:31:19.849Z,100343.81
2018-12-25T10:33:49.264Z,100339.35
2018-12-25T10:36:18.798Z,100327.59
2018-12-25T10:38:48.364Z,100338.96
2018-12-25T10:41:17.791Z,100347.62
2018-12-25T10:43:47.336Z,100315.69
2018-12-25T10:46:16.940Z,100332.48
2018-12-25T10:48:46.395Z,100328.11
2018-12-25T10:51:15.897Z,100328.81
2018-12-25T10:53:45.382Z,100337.41
2018-12-25T10:56:14.810Z,100334.45
2018-12-25T10:58:44.327Z,100336.84
2018-12-25T11:01:26.037Z,100331.17
2018-12-25T11:03:55.512Z,100328.47
2018-12-25T11:06:25.055Z,100322.06
2018-12-25T11:08:54.577Z,100307.17
2018-12-25T11:11:24.019Z,100314.07
2018-12-25T11:13:53.462Z,100311.53
2018-12-25T11:16:23.003Z,100318.55
2018-12-25T11:18:52.439Z,100313.69
2018-12-25T11:21:21.993Z,100313.26
2018-12-25T11:23:51.565Z,100314.00
2018-12-25T11:26:21.101Z,100303.98
2018-12-25T11:28:50.507Z,100316.91
2018-12-25T11:31:19.977Z,100300.77
2018-12-25T11:33:49.524Z,100311.98
2018-12-25T11:36:18.944Z,100308.34
2018-12-25T11:38:48.482Z,100305.59
2018-12-25T11:41:18.026Z,100299.27
2018-12-25T11:43:47.464Z,100302.25
2018-12-25T11:46:17.034Z,100306.64
2018-12-25T11:48:46.629Z,100301.59
2018-12-25T11:51:16.228Z,100300.45
2018-12-25T11:53:45.670Z,100297.05
2018-12-25T11:56:15.313Z,100306.68
2018-12-25T11:58:44.821Z,100309.84
2018-12-25T12:01:14.310Z,100308.70
2018-12-25T12:03:43.789Z,100312.14
2018-12-25T12:06:13.275Z,100309.72
2018-12-25T12:08:42.737Z,100311.51
2018-12-25T12:11:12.296Z,100309.73
2018-12-25T12:13:41.966Z,100310.30
2018-12-25T12:16:11.506Z,100321.64
2018-12-25T12:18:41.078Z,100322.98
2018-12-25T12:21:10.622Z,100325.03
2018-12-25T12:23:40.158Z,100324.31
2018-12-25T12:26:09.619Z,100337.66
2018-12-25T12:28:39.209Z,100331.22
2018-12-25T12:31:08.687Z,100337.50
2018-12-25T12:33:38.119Z,100348.03
2018-12-25T12:36:07.572Z,100352.00
2018-12-25T12:38:37.158Z,100346.54
2018-12-25T12:41:06.655Z,100360.88
2018-12-25T12:43:36.159Z,100354.73
2018-12-25T12:46:06.998Z,100341.92
2018-12-25T12:48:36.612Z,100348.95
2018-12-25T12:51:06.384Z,100352.59
2018-12-25T12:53:35.899Z,100350.80
2018-12-25T12:56:05.302Z,100351.16
2018-12-25T12:58:34.863Z,100354.72
2018-12-25T13:01:04.515Z,100356.23
2018-12-25T13:03:33.960Z,100352.55
2018-12-25T13:06:03.567Z,100354.73
2018-12-25T13:08:33.187Z,100363.11
2018-12-25T13:11:02.740Z,100355.34
2018-12-25T13:13:32.163Z,100368.38
2018-12-25T13:16:01.723Z,100364.31
2018-12-25T13:18:31.383Z,100377.94
2018-12-25T13:21:00.970Z,100375.57
2018-12-25T13:23:30.427Z,100361.36
2018-12-25T13:26:00.080Z,100366.56
2018-12-25T13:28:29.572Z,100361.92
2018-12-25T13:30:59.021Z,100370.83
2018-12-25T13:33:28.620Z,100393.75
2018-12-25T13:35:58.069Z,100392.42
2018-12-25T13:38:27.632Z,100390.30
2018-12-25T13:40:57.106Z,100380.90
2018-12-25T13:43:26.529Z,100383.91
2018-12-25T13:45:56.005Z,100381.45
2018-12-25T13:48:25.656Z,100379.91
2018-12-25T13:50:55.107Z,100381.36
2018-12-25T13:53:24.571Z,100387.13
2018-12-25T13:55:54.136Z,100394.48
2018-12-25T13:58:23.684Z,100388.70
2018-12-25T14:00:54.514Z,100387.23
2018-12-25T14:03:23.986Z,100391.25
2018-12-25T14:05:53.430Z,100394.42
2018-12-25T14:08:22.826Z,100403.11
2018-12-25T14:10:52.226Z,100403.16
2018-12-25T14:13:21.689Z,100398.19
2018-12-25T14:15:51.195Z,100403.51
2018-12-25T14:18:20.737Z,100399.77
2018-12-25T14:20:50.319Z,100402.55
2018-12-25T14:23:19.787Z,100401.96
2018-12-25T14:25:49.385Z,100406.66
2018-12-25T14:28:18.965Z,100410.64
2018-12-25T14:30:48.495Z,100409.44
2018-12-25T14:33:18.088Z,100411.14
2018-12-25T14:35:47.656Z,100405.45
2018-12-25T14:38:17.085Z,100410.91
2018-12-25T14:40:46.660Z,100413.19
2018-12-25T14:43:16.279Z,100422.01
2018-12-25T14:45:45.686Z,100418.16
2018-12-25T14:48:15.187Z,100430.82
2018-12-25T14:50:44.665Z,100430.23
2018-12-25T14:53:19.752Z,100436.51
2018-12-25T14:55:45.313Z,100436.41
2018-12-25T14:58:14.806Z,100435.31
2018-12-25T15:00:44.290Z,100434.58
2018-12-25T15:03:13.729Z,100437.97
2018-12-25T15:05:43.227Z,100444.97
2018-12-25T15:08:12.793Z,100448.23
2018-12-25T15:10:42.273Z,100459.35
2018-12-25T15:13:11.748Z,100450.06
2018-12-25T15:15:41.196Z,100458.77
2018-12-25T15:18:10.621Z,100460.20
2018-12-25T15:20:40.180Z,100469.29
2018-12-25T15:23:09.723Z,100470.62
2018-12-25T15:25:39.195Z,100477.63
2018-12-25T15:28:08.807Z,100482.33
2018-12-25T15:30:38.285Z,100483.08
2018-12-25T15:33:07.798Z,100486.19
2018-12-25T15:35:37.211Z,100484.27
2018-12-25T15:38:06.852Z,100483.99
2018-12-25T15:40:36.362Z,100490.16
2018-12-25T15:43:05.853Z,100494.01
2018-12-25T15:45:35.440Z,100493.97
2018-12-25T15:48:05.047Z,100491.57
2018-12-25T15:50:34.496Z,100492.97
2018-12-25T15:53:03.961Z,100501.20
2018-12-25T15:55:33.508Z,100508.17
2018-12-25T15:58:03.010Z,100511.78
2018-12-25T16:00:32.480Z,100509.17
2018-12-25T16:03:02.018Z,100514.10
2018-12-25T16:05:31.654Z,100516.31
2018-12-25T16:08:01.103Z,100525.90
2018-12-25T16:10:30.542Z,100528.20
2018-12-25T16:13:00.054Z,100534.42
2018-12-25T16:15:29.620Z,100539.26
2018-12-25T16:17:59.123Z,100535.86
2018-12-25T16:20:28.588Z,100541.16
2018-12-25T16:22:58.119Z,100532.33
2018-12-25T16:25:27.754Z,100537.16
2018-12-25T16:27:57.333Z,100538.55
2018-12-25T16:30:26.850Z,100539.80
2018-12-25T16:32:56.292Z,100553.22
2018-12-25T16:35:25.917Z,100559.75
2018-12-25T16:37:55.357Z,100561.23
2018-12-25T16:40:25.003Z,100561.44
2018-12-25T16:42:54.569Z,100557.23
2018-12-25T16:45:24.217Z,100555.06
2018-12-25T16:47:53.683Z,100564.52
2018-12-25T16:50:23.235Z,100567.54
2018-12-25T16:52:52.797Z,100568.21
2018-12-25T16:55:22.421Z,100565.73
2018-12-25T16:57:52.038Z,100563.13
2018-12-25T17:00:21.556Z,100567.59
2018-12-25T17:02:50.973Z,100559.36
2018-12-25T17:05:20.993Z,100571.39
2018-12-25T17:07:50.546Z,100577.63
2018-12-25T17:10:20.137Z,100577.48
2018-12-25T17:12:49.665Z,100584.11
2018-12-25T17:15:19.095Z,100579.05
2018-12-25T17:17:48.534Z,100581.33
2018-12-25T17:20:18.128Z,100586.39
2018-12-25T17:22:47.612Z,100594.95
2018-12-25T17:25:17.094Z,100603.03
2018-12-25T17:27:46.507Z,100607.06
2018-12-25T17:30:16.049Z,100605.02
2018-12-25T17:32:45.528Z,100606.72
2018-12-25T17:35:14.978Z,100607.25
2018-12-25T17:37:44.455Z,100597.92
2018-12-25T17:40:13.944Z,100599.21
2018-12-25T17:42:43.415Z,100598.78
2018-12-25T17:45:12.922Z,100602.94
2018-12-25T17:47:42.377Z,100600.86
2018-12-25T17:50:11.971Z,100605.97
2018-12-25T17:52:41.402Z,100608.75
2018-12-25T17:55:10.832Z,100614.93
2018-12-25T17:57:40.335Z,100613.23
2018-12-25T18:00:09.815Z,100607.92
2018-12-25T18:02:39.292Z,100614.36
2018-12-25T18:05:12.148Z,100610.39
2018-12-25T18:07:39.876Z,100614.17
2018-12-25T18:10:09.365Z,100610.67
2018-12-25T18:12:38.909Z,100608.56
2018-12-25T18:15:08.321Z,100605.95
2018-12-25T18:17:37.922Z,100605.28
2018-12-25T18:20:07.802Z,100607.58
2018-12-25T18:22:37.204Z,100609.47
2018-12-25T18:25:06.671Z,100622.62
2018-12-25T18:27:36.178Z,100617.70
2018-12-25T18:30:05.805Z,100622.14
2018-12-25T18:32:35.242Z,100619.71
2018-12-25T18:35:04.908Z,100617.45
2018-12-25T18:37:34.369Z,100617.79
2018-12-25T18:40:03.968Z,100612.72
2018-12-25T18:42:33.585Z,100617.25
2018-12-25T18:45:04.022Z,100616.70
2018-12-25T18:47:33.615Z,100622.75
2018-12-25T18:50:03.123Z,100620.39
2018-12-25T18:52:32.638Z,100624.84
2018-12-25T18:55:02.114Z,100621.03
2018-12-25T18:57:31.642Z,100617.45
2018-12-25T19:00:01.143Z,100622.86
2018-12-25T19:02:30.537Z,100628.25
2018-12-25T19:05:00.271Z,100631.37
2018-12-25T19:07:29.733Z,100636.19
2018-12-25T19:09:59.163Z,100629.59
2018-12-25T19:12:28.556Z,100638.92
2018-12-25T19:15:19.130Z,100636.39
2018-12-25T19:17:48.526Z,100636.02
2018-12-25T19:20:18.005Z,100637.69
2018-12-25T19:22:47.478Z,100637.34
2018-12-25T19:25:17.084Z,100636.20
2018-12-25T19:27:46.555Z,100635.62
2018-12-25T19:30:16.431Z,100628.28
2018-12-25T19:32:45.905Z,100634.50
2018-12-25T19:35:15.320Z,100632.63
2018-12-25T19:37:44.768Z,100635.73
2018-12-25T19:40:14.134Z,100628.07
2018-12-25T19:42:43.556Z,100639.22
2018-12-25T19:45:12.974Z,100643.19
2018-12-25T19:47:42.415Z,100655.77
2018-12-25T19:50:11.877Z,100657.39
2018-12-25T19:52:41.293Z,100657.39
2018-12-25T19:55:10.770Z,100661.91
2018-12-25T19:57:40.223Z,100658.70
2018-12-25T20:00:11.334Z,100650.57
2018-12-25T20:02:41.272Z,100667.38
2018-12-25T20:05:29.340Z,100664.56
2018-12-25T20:08:40.088Z,100659.09
2018-12-25T20:11:43.813Z,100672.67
2018-12-25T20:14:46.161Z,100667.78
2018-12-25T20:17:44.082Z,100677.03
2018-12-25T20:20:47.814Z,100669.10
2018-12-25T20:23:48.920Z,100689.79
2018-12-25T20:26:45.360Z,100512.19
2018-12-25T20:29:57.465Z,100693.48
2018-12-25T20:33:11.058Z,100694.13
2018-12-25T20:36:36.540Z,100683.82
2018-12-25T20:39:37.846Z,100695.56
2018-12-25T20:42:41.376Z,100695.65
2018-12-25T20:45:53.614Z,100703.50
2018-12-25T20:48:46.225Z,100704.23
2018-12-25T20:52:05.708Z,100708.96
2018-12-25T20:55:40.363Z,100699.89
2018-12-25T20:59:11.795Z,100703.48
2018-12-25T21:02:31.427Z,100702.53
2018-12-25T21:05:42.562Z,100702.65
2018-12-25T21:08:54.908Z,100721.91
2018-12-25T21:12:03.492Z,100719.66
2018-12-25T21:14:56.433Z,100717.84
2018-12-25T21:18:02.851Z,100711.12
2018-12-25T21:21:14.866Z,100718.97
2018-12-25T21:24:19.855Z,100713.49
2018-12-25T21:27:25.256Z,100726.73
2018-12-25T21:29:54.644Z,100719.34
2018-12-25T21:32:24.124Z,100716.69
2018-12-25T21:34:55.143Z,100717.45
2018-12-25T21:37:24.656Z,100718.58
2018-12-25T21:39:54.155Z,100708.74
2018-12-25T21:42:23.663Z,100705.33
2018-12-25T21:44:53.150Z,100709.87
2018-12-25T21:47:22.638Z,100710.09
2018-12-25T21:49:52.504Z,100709.23
2018-12-25T21:52:21.963Z,100707.44
2018-12-25T21:54:51.511Z,100711.58
2018-12-25T21:57:21.089Z,100706.09
2018-12-25T21:59:50.609Z,100711.20
2018-12-25T22:02:20.170Z,100709.87
2018-12-25T22:04:49.604Z,100707.22
2018-12-25T22:07:19.050Z,100714.98
2018-12-25T22:09:48.530Z,100715.08
2018-12-25T22:12:18.199Z,100714.22
2018-12-25T22:14:47.638Z,100714.62
2018-12-25T22:17:17.126Z,100715.37
2018-12-25T22:19:46.580Z,100725.02
2018-12-25T22:22:16.057Z,100720.86
2018-12-25T22:24:45.558Z,100724.54
2018-12-25T22:27:15.062Z,100726.18
2018-12-25T22:29:44.543Z,100724.48
2018-12-25T22:32:13.972Z,100713.13
2018-12-25T22:34:43.499Z,100726.55
2018-12-25T22:37:12.997Z,100726.34
2018-12-25T22:39:42.475Z,100738.08
2018-12-25T22:42:11.880Z,100736.25
2018-12-25T22:44:41.397Z,100749.95
2018-12-25T22:47:10.837Z,100747.69
2018-12-25T22:49:40.258Z,100746.54
2018-12-25T22:52:09.971Z,100744.44
2018-12-25T22:54:39.553Z,100745.04
2018-12-25T22:57:08.954Z,100757.33
2018-12-25T22:59:38.457Z,100756.00
2018-12-25T23:02:07.933Z,100757.58
2018-12-25T23:04:37.316Z,100764.48
2018-12-25T23:07:07.029Z,100765.13
2018-12-25T23:09:36.619Z,100774.94
2018-12-25T23:12:06.200Z,100778.09
2018-12-25T23:14:35.844Z,100779.50
2018-12-25T23:17:05.488Z,100784.20
2018-12-25T23:19:35.233Z,100783.73
2018-12-25T23:22:05.009Z,100791.27
2018-12-25T23:24:34.763Z,100789.01
2018-12-25T23:27:04.361Z,100791.78
2018-12-25T23:29:33.934Z,100788.68
2018-12-25T23:32:04.018Z,100794.05
2018-12-25T23:34:33.557Z,100794.36
2018-12-25T23:37:03.160Z,100797.25
2018-12-25T23:39:32.823Z,100792.64
2018-12-25T23:42:02.487Z,100798.19
2018-12-25T23:44:32.021Z,100803.48
2018-12-25T23:47:01.726Z,100812.72
2018-12-25T23:49:31.373Z,100806.41
2018-12-25T23:52:00.999Z,100807.91
2018-12-25T23:54:30.593Z,100809.05
2018-12-25T23:57:00.150Z,100799.05
2018-12-25T23:59:29.719Z,100804.72
